LIBD/BRI METAR and TAF weather

Enter ICAO airport designator
Station Type Date Time Source
LIBD METAR 2020/12/05 06:20 UTC NOAA

LIBD 050620Z 20006KT CAVOK 08/06 Q1008


Station Type Date Time Source
LIBD Decoded METAR 2020/12/05 06:20 UTC NOAA

Bari / Palese Macchie, Italy (LIBD) 41-08N 016-47E 49M
Dec 05, 2020 - 01:20 AM EST / 2020.12.05 0620 UTC
Wind: from the SSW (200 degrees) at 7 MPH (6 KT):0
Visibility: greater than 7 mile(s):0
Temperature: 46 F (8 C)
Dew Point: 42 F (6 C)
Relative Humidity: 87%
Pressure (altimeter): 29.77 in. Hg (1008 hPa)
ob: LIBD 050620Z 20006KT CAVOK 08/06 Q1008
cycle: 6

Station Type Date Time Source
LIBD TAF 2020/12/05 06:21 UTC NOAA

TAF TAF LIBD 050500Z 0506/0606 16015KT 9999 SCT030

Example: see airport list